Time,TemperatureF,DewpointF,PressureIn,WindDirection,WindDirectionDegrees,WindSpeedMPH,WindSpeedGustMPH,Humidity,HourlyPrecipIn,Conditions,Clouds,dailyrainin,SoftwareType,DateUTC
2013-03-20 00:05:00,69.3,41.2,29.84,South,180,5.8,-999.0,36,-99.99,,,0.00,Acu-Link.com,2013-03-20 07:05:00,
2013-03-20 00:20:00,69.1,41.0,29.84,South,180,9.4,-999.0,36,-99.99,,,0.00,Acu-Link.com,2013-03-20 07:20:00,
2013-03-20 09:20:00,69.1,41.0,29.84,South,180,7.4,-999.0,36,-99.99,,,0.00,Acu-Link.com,2013-03-20 16:20:00,
2013-03-20 09:35:00,77.5,39.9,29.85,East,90,2.7,-999.0,26,-99.99,,,0.00,Acu-Link.com,2013-03-20 16:35:00,
2013-03-20 09:50:00,77.2,39.6,29.85,WNW,292,0.0,-999.0,26,-99.99,,,0.00,Acu-Link.com,2013-03-20 16:50:00,
2013-03-20 10:05:00,75.6,40.2,29.84,SW,225,1.6,-999.0,28,-99.99,,,0.00,Acu-Link.com,2013-03-20 17:05:00,
2013-03-20 10:35:00,81.7,35.4,29.84,SE,135,1.6,-999.0,19,-99.99,,,0.00,Acu-Link.com,2013-03-20 17:35:00,
2013-03-20 10:50:00,83.5,32.6,29.83,NW,315,0.0,-999.0,16,-99.99,,,0.00,Acu-Link.com,2013-03-20 17:50:00,
2013-03-20 11:05:00,85.8,31.1,29.82,ESE,112,5.1,-999.0,14,-99.99,,,0.00,Acu-Link.com,2013-03-20 18:05:00,
2013-03-20 11:21:00,84.9,28.6,29.82,ESE,112,2.7,-999.0,13,-99.99,,,0.00,Acu-Link.com,2013-03-20 18:21:00,
2013-03-20 11:36:00,86.0,25.4,29.82,South,180,9.8,-999.0,11,-99.99,,,0.00,Acu-Link.com,2013-03-20 18:36:00,
2013-03-20 11:51:00,86.5,25.8,29.81,SSW,202,8.9,-999.0,11,-99.99,,,0.00,Acu-Link.com,2013-03-20 18:51:00,
2013-03-20 12:06:00,86.5,23.5,29.79,SW,225,8.9,-999.0,10,-99.99,,,0.00,Acu-Link.com,2013-03-20 19:06:00,
2013-03-20 12:22:00,87.3,24.0,29.79,WSW,247,10.3,-999.0,10,-99.99,,,0.00,Acu-Link.com,2013-03-20 19:22:00,
2013-03-20 12:37:00,87.3,21.5,29.78,SSW,202,6.7,-999.0,9,-99.99,,,0.00,Acu-Link.com,2013-03-20 19:37:00,
2013-03-20 12:52:00,88.3,22.4,29.78,SSW,202,13.4,-999.0,9,-99.99,,,0.00,Acu-Link.com,2013-03-20 19:52:00,
2013-03-20 13:22:00,88.5,13.1,29.77,SW,225,12.5,-999.0,6,-99.99,,,0.00,Acu-Link.com,2013-03-20 20:22:00,
2013-03-20 13:37:00,88.7,9.1,29.76,South,180,15.4,-999.0,5,-99.99,,,0.00,Acu-Link.com,2013-03-20 20:37:00,
2013-03-20 13:53:00,89.4,4.7,29.75,South,180,12.5,-999.0,4,-99.99,,,0.00,Acu-Link.com,2013-03-20 20:53:00,
2013-03-20 14:08:00,88.7,4.2,29.73,SW,225,10.3,-999.0,4,-99.99,,,0.00,Acu-Link.com,2013-03-20 21:08:00,
2013-03-20 14:23:00,90.0,-1.1,29.73,SSW,202,12.5,-999.0,3,-99.99,,,0.00,Acu-Link.com,2013-03-20 21:23:00,
2013-03-20 14:38:00,89.2,-9.9,29.72,SSW,202,9.4,-999.0,2,-99.99,,,0.00,Acu-Link.com,2013-03-20 21:38:00,
2013-03-20 14:53:00,89.6,4.9,29.72,SSW,202,14.1,-999.0,4,-99.99,,,0.00,Acu-Link.com,2013-03-20 21:53:00,
2013-03-20 15:09:00,88.9,4.4,29.71,SSW,202,11.0,-999.0,4,-99.99,,,0.00,Acu-Link.com,2013-03-20 22:09:00,
2013-03-20 15:24:00,89.1,9.4,29.71,South,180,11.4,-999.0,5,-99.99,,,0.00,Acu-Link.com,2013-03-20 22:24:00,
2013-03-20 15:39:00,89.1,9.4,29.70,SW,225,11.4,-999.0,5,-99.99,,,0.00,Acu-Link.com,2013-03-20 22:39:00,
2013-03-20 15:54:00,88.0,19.3,29.69,SSW,202,16.1,-999.0,8,-99.99,,,0.00,Acu-Link.com,2013-03-20 22:54:00,
2013-03-20 16:09:00,87.4,21.7,29.69,SSW,202,13.0,-999.0,9,-99.99,,,0.00,Acu-Link.com,2013-03-20 23:09:00,
2013-03-20 16:24:00,88.2,19.5,29.68,SSW,202,11.0,-999.0,8,-99.99,,,0.00,Acu-Link.com,2013-03-20 23:24:00,
2013-03-20 16:40:00,88.3,16.5,29.68,SSW,202,15.4,-999.0,7,-99.99,,,0.00,Acu-Link.com,2013-03-20 23:40:00,
2013-03-20 16:55:00,89.6,13.9,29.67,SW,225,10.3,-999.0,6,-99.99,,,0.00,Acu-Link.com,2013-03-20 23:55:00,
2013-03-20 17:10:00,90.0,89.6,29.67,West,270,19.0,-999.0,99,-99.99,,,0.00,Acu-Link.com,2013-03-21 00:10:00,
2013-03-20 17:25:00,89.4,89.1,29.67,WNW,292,17.0,-999.0,99,-99.99,,,0.00,Acu-Link.com,2013-03-21 00:25:00,
2013-03-20 17:40:00,88.3,88.0,29.67,West,270,13.0,-999.0,99,-99.99,,,0.00,Acu-Link.com,2013-03-21 00:40:00,
2013-03-20 17:55:00,87.6,-2.6,29.66,WNW,292,14.1,-999.0,3,-99.99,,,0.00,Acu-Link.com,2013-03-21 00:55:00,
2013-03-20 18:10:00,87.4,-2.7,29.66,West,270,12.5,-999.0,3,-99.99,,,0.00,Acu-Link.com,2013-03-21 01:10:00,
2013-03-20 18:25:00,87.1,-3.0,29.67,West,270,14.1,-999.0,3,-99.99,,,0.00,Acu-Link.com,2013-03-21 01:25:00,
2013-03-20 18:41:00,86.7,2.9,29.67,WNW,292,15.4,-999.0,4,-99.99,,,0.00,Acu-Link.com,2013-03-21 01:41:00,
2013-03-20 18:56:00,86.0,7.3,29.67,WNW,292,12.5,-999.0,5,-99.99,,,0.00,Acu-Link.com,2013-03-21 01:56:00,
2013-03-20 19:11:00,85.3,14.3,29.68,WNW,292,9.4,-999.0,7,-99.99,,,0.00,Acu-Link.com,2013-03-21 02:11:00,
2013-03-20 19:26:00,84.7,19.7,29.67,West,270,14.5,-999.0,9,-99.99,,,0.00,Acu-Link.com,2013-03-21 02:26:00,
2013-03-20 19:57:00,83.1,15.7,29.69,WNW,292,14.5,-999.0,8,-99.99,,,0.00,Acu-Link.com,2013-03-21 02:57:00,
2013-03-20 20:12:00,82.9,12.6,29.69,West,270,21.7,-999.0,7,-99.99,,,0.00,Acu-Link.com,2013-03-21 03:12:00,
2013-03-20 20:27:00,82.8,9.0,29.69,West,270,14.5,-999.0,6,-99.99,,,0.00,Acu-Link.com,2013-03-21 03:27:00,
2013-03-20 20:42:00,82.2,8.6,29.69,West,270,21.3,-999.0,6,-99.99,,,0.01,Acu-Link.com,2013-03-21 03:42:00,
2013-03-20 20:57:00,81.7,11.6,29.69,West,270,20.6,-999.0,7,-99.99,,,0.01,Acu-Link.com,2013-03-21 03:57:00,
2013-03-20 21:12:00,81.0,11.1,29.68,West,270,21.3,-999.0,7,-99.99,,,0.01,Acu-Link.com,2013-03-21 04:12:00,
2013-03-20 21:27:00,80.4,10.7,29.67,West,270,14.5,-999.0,7,-99.99,,,0.01,Acu-Link.com,2013-03-21 04:27:00,
2013-03-20 21:42:00,80.1,7.1,29.67,WSW,247,19.0,-999.0,6,-99.99,,,0.01,Acu-Link.com,2013-03-21 04:42:00,
2013-03-20 21:57:00,79.3,9.9,29.67,WSW,247,17.7,-999.0,7,-99.99,,,0.01,Acu-Link.com,2013-03-21 04:57:00,
2013-03-20 22:13:00,78.1,19.3,29.66,WSW,247,23.7,-999.0,11,-99.99,,,0.01,Acu-Link.com,2013-03-21 05:13:00,
2013-03-20 22:28:00,77.5,22.8,29.66,West,270,30.0,-999.0,13,-99.99,,,0.01,Acu-Link.com,2013-03-21 05:28:00,
2013-03-20 22:43:00,77.0,27.4,29.66,West,270,29.3,-999.0,16,-99.99,,,0.01,Acu-Link.com,2013-03-21 05:43:00,
2013-03-20 22:58:00,76.3,28.3,29.66,West,270,23.3,-999.0,17,-99.99,,,0.01,Acu-Link.com,2013-03-21 05:58:00,
2013-03-20 23:13:00,76.1,32.1,29.66,WNW,292,22.8,-999.0,20,-99.99,,,0.02,Acu-Link.com,2013-03-21 06:13:00,
2013-03-20 23:28:00,77.0,27.4,29.66,WNW,292,19.7,-999.0,16,-99.99,,,0.02,Acu-Link.com,2013-03-21 06:28:00,
2013-03-20 23:43:00,76.5,28.4,29.65,West,270,21.3,-999.0,17,-99.99,,,0.02,Acu-Link.com,2013-03-21 06:43:00,
2013-03-20 23:58:00,76.3,25.2,29.64,West,270,21.3,-999.0,15,-99.99,,,0.04,Acu-Link.com,2013-03-21 06:58:00,